createdAt,value
2023-10-29T00:01:21.635Z,-84
2023-10-29T00:03:50.066Z,-82
2023-10-29T00:06:18.245Z,-82
2023-10-29T00:08:46.351Z,-82
2023-10-29T00:11:14.544Z,-82
2023-10-29T00:13:42.691Z,-82
2023-10-29T00:16:12.271Z,-82
2023-10-29T00:18:40.682Z,-84
2023-10-29T00:21:09.094Z,-82
2023-10-29T00:23:37.477Z,-82
2023-10-29T00:26:05.279Z,-82
2023-10-29T00:28:33.474Z,-82
2023-10-29T00:31:01.593Z,-82
2023-10-29T00:33:29.667Z,-82
2023-10-29T00:35:57.942Z,-82
2023-10-29T00:38:26.636Z,-82
2023-10-29T00:40:54.707Z,-82
2023-10-29T00:43:22.795Z,-82
2023-10-29T00:45:54.301Z,-82
2023-10-29T00:48:22.839Z,-83
2023-10-29T00:50:51.659Z,-82
2023-10-29T00:53:20.159Z,-82
2023-10-29T00:55:48.785Z,-82
2023-10-29T00:58:17.754Z,-82
2023-10-29T01:00:45.824Z,-82
2023-10-29T01:03:14.096Z,-84
2023-10-29T01:05:42.580Z,-83
2023-10-29T01:08:10.821Z,-83
2023-10-29T01:10:39.651Z,-85
2023-10-29T01:13:07.984Z,-84
2023-10-29T01:15:36.469Z,-82
2023-10-29T01:18:05.191Z,-81
2023-10-29T01:20:33.453Z,-82
2023-10-29T01:23:01.652Z,-82
2023-10-29T01:25:30.430Z,-83
2023-10-29T01:27:59.405Z,-82
2023-10-29T01:30:27.599Z,-83
2023-10-29T01:32:55.832Z,-83
2023-10-29T01:35:24.210Z,-82
2023-10-29T01:37:52.502Z,-82
2023-10-29T01:40:20.647Z,-81
2023-10-29T01:42:49.808Z,-82
2023-10-29T01:45:19.003Z,-83
2023-10-29T01:47:47.224Z,-82
2023-10-29T01:50:16.504Z,-82
2023-10-29T01:52:44.571Z,-82
2023-10-29T01:55:12.670Z,-82
2023-10-29T01:57:43.162Z,-82
2023-10-29T02:00:12.050Z,-83
2023-10-29T02:02:40.613Z,-84
2023-10-29T02:05:09.176Z,-82
2023-10-29T02:07:37.502Z,-83
2023-10-29T02:10:06.066Z,-83
2023-10-29T02:12:34.400Z,-82
2023-10-29T02:15:03.247Z,-84
2023-10-29T02:17:31.594Z,-82
2023-10-29T02:19:59.812Z,-82
2023-10-29T02:22:29.173Z,-82
2023-10-29T02:24:57.402Z,-83
2023-10-29T02:27:25.639Z,-82
2023-10-29T02:29:55.553Z,-82
2023-10-29T02:32:23.970Z,-82
2023-10-29T02:34:52.353Z,-82
2023-10-29T02:37:21.158Z,-82
2023-10-29T02:39:49.538Z,-83
2023-10-29T02:42:18.480Z,-84
2023-10-29T02:44:47.002Z,-82
2023-10-29T02:47:15.508Z,-83
2023-10-29T02:49:43.646Z,-83
2023-10-29T02:52:11.778Z,-82
2023-10-29T02:54:39.947Z,-83
2023-10-29T02:57:08.225Z,-82
2023-10-29T02:59:36.438Z,-84
2023-10-29T03:02:04.662Z,-82
2023-10-29T03:04:32.870Z,-84
2023-10-29T03:07:01.010Z,-85
2023-10-29T03:09:29.172Z,-82
2023-10-29T03:11:57.411Z,-82
2023-10-29T03:14:25.664Z,-82
2023-10-29T03:16:53.805Z,-84
2023-10-29T03:19:22.056Z,-84
2023-10-29T03:21:50.438Z,-84
2023-10-29T03:24:18.876Z,-83
2023-10-29T03:26:46.977Z,-83
2023-10-29T03:29:15.113Z,-83
2023-10-29T03:31:43.262Z,-82
2023-10-29T03:34:12.906Z,-81
2023-10-29T03:36:40.956Z,-84
2023-10-29T03:39:09.172Z,-82
2023-10-29T03:41:37.672Z,-82
2023-10-29T03:44:05.897Z,-82
2023-10-29T03:46:33.954Z,-83
2023-10-29T03:49:02.149Z,-83
2023-10-29T03:51:30.264Z,-82
2023-10-29T03:53:58.509Z,-82
2023-10-29T03:56:26.683Z,-83
2023-10-29T03:58:54.839Z,-83
2023-10-29T04:01:23.692Z,-83
2023-10-29T04:03:51.962Z,-82
2023-10-29T04:06:20.241Z,-82
2023-10-29T04:08:48.407Z,-82
2023-10-29T04:11:16.699Z,-82
2023-10-29T04:13:45.494Z,-82
2023-10-29T04:16:13.670Z,-82
2023-10-29T04:18:41.885Z,-82
2023-10-29T04:21:09.979Z,-82
2023-10-29T04:23:38.549Z,-82
2023-10-29T04:26:06.412Z,-82
2023-10-29T04:28:34.545Z,-82
2023-10-29T04:31:02.902Z,-82
2023-10-29T04:33:31.134Z,-82
2023-10-29T04:35:59.311Z,-82
2023-10-29T04:38:27.687Z,-82
2023-10-29T04:40:55.816Z,-83
2023-10-29T04:43:23.880Z,-83
2023-10-29T04:45:51.993Z,-83
2023-10-29T04:48:20.438Z,-88
2023-10-29T04:50:48.629Z,-82
2023-10-29T04:53:16.726Z,-82
2023-10-29T04:55:45.354Z,-84
2023-10-29T04:58:13.429Z,-82
2023-10-29T05:00:41.703Z,-71
2023-10-29T05:03:09.988Z,-71
2023-10-29T05:05:38.306Z,-71
2023-10-29T05:08:07.420Z,-73
2023-10-29T05:10:35.722Z,-71
2023-10-29T05:13:03.889Z,-71
2023-10-29T05:15:32.366Z,-71
2023-10-29T05:18:00.535Z,-72
2023-10-29T05:20:31.320Z,-72
2023-10-29T05:22:59.841Z,-71
2023-10-29T05:25:28.063Z,-70
2023-10-29T05:27:57.528Z,-72
2023-10-29T05:30:25.899Z,-71
2023-10-29T05:32:54.192Z,-71
2023-10-29T05:35:23.063Z,-72
2023-10-29T05:37:51.335Z,-70
2023-10-29T05:40:18.581Z,-71
2023-10-29T05:42:46.850Z,-72
2023-10-29T05:45:14.968Z,-71
2023-10-29T05:47:43.305Z,-71
2023-10-29T05:50:11.841Z,-71
2023-10-29T05:52:40.860Z,-71
2023-10-29T05:55:08.766Z,-72
2023-10-29T05:57:36.965Z,-72
2023-10-29T06:00:05.313Z,-71
2023-10-29T06:02:34.393Z,-71
2023-10-29T06:05:02.843Z,-71
2023-10-29T06:07:31.060Z,-71
2023-10-29T06:09:59.228Z,-71
2023-10-29T06:12:27.939Z,-72
2023-10-29T06:14:56.197Z,-71
2023-10-29T06:17:27.268Z,-71
2023-10-29T06:19:55.756Z,-71
2023-10-29T06:22:23.967Z,-71
2023-10-29T06:24:52.180Z,-70
2023-10-29T06:27:20.337Z,-70
2023-10-29T06:29:48.583Z,-70
2023-10-29T06:32:16.833Z,-72
2023-10-29T06:34:45.003Z,-71
2023-10-29T06:37:13.361Z,-71
2023-10-29T06:39:41.654Z,-71
2023-10-29T06:42:10.019Z,-72
2023-10-29T06:44:38.283Z,-71
2023-10-29T06:47:07.014Z,-71
2023-10-29T06:49:35.226Z,-71
2023-10-29T06:52:03.413Z,-71
2023-10-29T06:54:32.190Z,-72
2023-10-29T06:57:02.089Z,-73
2023-10-29T06:59:32.221Z,-71
2023-10-29T07:02:00.509Z,-71
2023-10-29T07:04:29.150Z,-71
2023-10-29T07:06:57.469Z,-71
2023-10-29T07:09:25.649Z,-70
2023-10-29T07:11:56.839Z,-70
2023-10-29T07:14:25.221Z,-73
2023-10-29T07:16:53.377Z,-72
2023-10-29T07:19:21.672Z,-73
2023-10-29T07:21:49.881Z,-70
2023-10-29T07:24:17.985Z,-70
2023-10-29T07:26:46.244Z,-70
2023-10-29T07:29:14.964Z,-70
2023-10-29T07:31:43.841Z,-71
2023-10-29T07:34:12.103Z,-71
2023-10-29T07:36:40.333Z,-71
2023-10-29T07:39:08.563Z,-71
2023-10-29T07:41:36.756Z,-70
2023-10-29T07:44:05.163Z,-70
2023-10-29T07:46:33.503Z,-71
2023-10-29T07:49:01.721Z,-70
2023-10-29T07:51:30.268Z,-70
2023-10-29T07:54:00.672Z,-71
2023-10-29T07:56:29.503Z,-71
2023-10-29T07:58:57.691Z,-71
2023-10-29T08:01:25.926Z,-71
2023-10-29T08:03:57.290Z,-72
2023-10-29T08:06:25.588Z,-72
2023-10-29T08:08:55.182Z,-71
2023-10-29T08:11:23.715Z,-71
2023-10-29T08:13:52.373Z,-71
2023-10-29T08:16:21.052Z,-70
2023-10-29T08:18:48.947Z,-71
2023-10-29T08:21:18.500Z,-71
2023-10-29T08:23:46.727Z,-70
2023-10-29T08:26:15.220Z,-70
2023-10-29T08:28:43.497Z,-71
2023-10-29T08:31:11.681Z,-71
2023-10-29T08:33:40.044Z,-71
2023-10-29T08:36:08.103Z,-70
2023-10-29T08:38:36.833Z,-70
2023-10-29T08:41:15.332Z,-70
2023-10-29T08:43:43.700Z,-72
2023-10-29T08:46:11.920Z,-71
2023-10-29T08:48:40.422Z,-72
2023-10-29T08:51:08.824Z,-71
2023-10-29T08:53:37.085Z,-70
2023-10-29T08:56:06.210Z,-70
2023-10-29T08:58:36.495Z,-71
2023-10-29T09:01:08.672Z,-70
2023-10-29T09:03:37.644Z,-71
2023-10-29T09:06:06.187Z,-70
2023-10-29T09:08:35.631Z,-71
2023-10-29T09:11:03.958Z,-71
2023-10-29T09:13:32.253Z,-71
2023-10-29T09:16:01.177Z,-71
2023-10-29T09:18:30.183Z,-71
2023-10-29T09:20:58.619Z,-72
2023-10-29T09:23:26.877Z,-71
2023-10-29T09:25:55.138Z,-72
2023-10-29T09:28:23.262Z,-72
2023-10-29T09:30:53.073Z,-71
2023-10-29T09:33:21.444Z,-71
2023-10-29T09:35:50.173Z,-71
2023-10-29T09:38:21.497Z,-71
2023-10-29T09:40:54.388Z,-71
2023-10-29T09:43:28.281Z,-71
2023-10-29T09:45:57.615Z,-71
2023-10-29T09:48:26.528Z,-72
2023-10-29T09:50:55.047Z,-71
2023-10-29T09:53:24.830Z,-72
2023-10-29T09:55:54.625Z,-71
2023-10-29T09:58:25.019Z,-71
2023-10-29T10:00:53.590Z,-71
2023-10-29T10:03:21.975Z,-71
2023-10-29T10:05:50.395Z,-72
2023-10-29T10:08:31.807Z,-71
2023-10-29T10:11:00.800Z,-71
2023-10-29T10:13:38.342Z,-71
2023-10-29T10:16:15.841Z,-71
2023-10-29T10:18:57.254Z,-71
2023-10-29T10:21:27.374Z,-72
2023-10-29T10:23:57.573Z,-71
2023-10-29T10:26:35.096Z,-71
2023-10-29T10:29:08.315Z,-72
2023-10-29T10:31:37.071Z,-71
2023-10-29T10:34:12.510Z,-70
2023-10-29T10:36:40.938Z,-71
2023-10-29T10:39:09.399Z,-70
2023-10-29T10:41:45.293Z,-71
2023-10-29T10:44:13.560Z,-70
2023-10-29T10:46:57.574Z,-70
2023-10-29T10:49:26.074Z,-70
2023-10-29T10:51:57.074Z,-71
2023-10-29T10:54:25.787Z,-70
2023-10-29T10:56:58.315Z,-71
2023-10-29T10:59:26.613Z,-71
2023-10-29T11:01:54.951Z,-69
2023-10-29T11:04:27.834Z,-70
2023-10-29T11:06:56.193Z,-70
2023-10-29T11:09:24.784Z,-71
2023-10-29T11:11:57.355Z,-70
2023-10-29T11:14:26.578Z,-69
2023-10-29T11:16:59.850Z,-70
2023-10-29T11:19:47.961Z,-71
2023-10-29T11:22:20.526Z,-70
2023-10-29T11:25:09.227Z,-70
2023-10-29T11:27:44.414Z,-70
2023-10-29T11:30:23.809Z,-70
2023-10-29T11:33:09.761Z,-70
2023-10-29T11:35:38.388Z,-70
2023-10-29T11:38:32.575Z,-70
2023-10-29T11:41:00.799Z,-70
2023-10-29T11:43:28.858Z,-70
2023-10-29T11:46:06.281Z,-69
2023-10-29T11:48:34.882Z,-70
2023-10-29T11:51:04.826Z,-69
2023-10-29T11:53:33.439Z,-69
2023-10-29T11:56:11.269Z,-70
2023-10-29T11:58:39.780Z,-69
2023-10-29T12:01:08.110Z,-69
2023-10-29T12:03:36.559Z,-71
2023-10-29T12:06:04.995Z,-69
2023-10-29T12:08:34.505Z,-69
2023-10-29T12:11:02.694Z,-70
2023-10-29T12:13:43.542Z,-70
2023-10-29T12:16:13.242Z,-69
2023-10-29T12:18:42.582Z,-70
2023-10-29T12:21:13.486Z,-70
2023-10-29T12:23:41.722Z,-70
2023-10-29T12:26:11.830Z,-69
2023-10-29T12:28:40.119Z,-69
2023-10-29T12:31:10.822Z,-69
2023-10-29T12:33:39.985Z,-70
2023-10-29T12:36:16.628Z,-69
2023-10-29T12:38:44.975Z,-69
2023-10-29T12:41:15.287Z,-72
2023-10-29T12:43:48.258Z,-69
2023-10-29T12:46:19.954Z,-70
2023-10-29T12:49:05.922Z,-70
2023-10-29T12:51:34.330Z,-70
2023-10-29T12:54:18.461Z,-71
2023-10-29T12:56:53.247Z,-71
2023-10-29T12:59:27.744Z,-71
2023-10-29T13:02:05.433Z,-70
2023-10-29T13:04:34.124Z,-70
2023-10-29T13:07:08.685Z,-70
2023-10-29T13:09:39.344Z,-70
2023-10-29T13:12:08.977Z,-71
2023-10-29T13:14:37.834Z,-71
2023-10-29T13:17:07.069Z,-69
2023-10-29T13:19:36.389Z,-70
2023-10-29T13:22:07.023Z,-70
2023-10-29T13:24:35.206Z,-70
2023-10-29T13:27:03.489Z,-70
2023-10-29T13:29:31.769Z,-69
2023-10-29T13:31:59.925Z,-70
2023-10-29T13:34:29.166Z,-70
2023-10-29T13:36:57.324Z,-70
2023-10-29T13:39:25.478Z,-70
2023-10-29T13:41:53.745Z,-70
2023-10-29T13:44:21.893Z,-71
2023-10-29T13:46:50.166Z,-70
2023-10-29T13:49:18.362Z,-70
2023-10-29T13:51:47.920Z,-71
2023-10-29T13:54:16.352Z,-71
2023-10-29T13:56:44.708Z,-71
2023-10-29T13:59:13.049Z,-70
2023-10-29T14:01:41.350Z,-70
2023-10-29T14:04:09.687Z,-70
2023-10-29T14:06:37.824Z,-70
2023-10-29T14:09:05.885Z,-70
2023-10-29T14:11:34.025Z,-72
2023-10-29T14:14:02.261Z,-70
2023-10-29T14:16:40.898Z,-72
2023-10-29T14:19:09.838Z,-70
2023-10-29T14:21:38.564Z,-70
2023-10-29T14:24:08.826Z,-71
2023-10-29T14:26:38.556Z,-71
2023-10-29T14:29:06.901Z,-71
2023-10-29T14:31:37.197Z,-70
2023-10-29T14:34:05.756Z,-71
2023-10-29T14:36:34.482Z,-72
2023-10-29T14:39:03.038Z,-70
2023-10-29T14:41:31.273Z,-70
2023-10-29T14:43:59.454Z,-70
2023-10-29T14:46:27.648Z,-71
2023-10-29T14:48:56.093Z,-71
2023-10-29T14:51:24.557Z,-70
2023-10-29T14:53:52.737Z,-71
2023-10-29T14:56:23.257Z,-71
2023-10-29T14:58:51.449Z,-71
2023-10-29T15:01:19.733Z,-71
2023-10-29T15:03:49.001Z,-71
2023-10-29T15:06:17.537Z,-71
2023-10-29T15:08:45.692Z,-70
2023-10-29T15:11:26.203Z,-71
2023-10-29T15:14:03.021Z,-72
2023-10-29T15:16:31.169Z,-70
2023-10-29T15:18:59.311Z,-70
2023-10-29T15:21:27.572Z,-69
2023-10-29T15:23:55.793Z,-69
2023-10-29T15:26:25.401Z,-70
2023-10-29T15:28:53.712Z,-69
2023-10-29T15:31:22.112Z,-70
2023-10-29T15:33:50.296Z,-70
2023-10-29T15:36:19.115Z,-69
2023-10-29T15:38:47.510Z,-71
2023-10-29T15:41:16.712Z,-69
2023-10-29T15:43:44.824Z,-69
2023-10-29T15:46:13.640Z,-69
2023-10-29T15:48:41.983Z,-71
2023-10-29T15:51:09.775Z,-70
2023-10-29T15:53:38.283Z,-72
2023-10-29T15:56:12.743Z,-70
2023-10-29T15:58:40.860Z,-70
2023-10-29T16:01:18.759Z,-70
2023-10-29T16:03:47.361Z,-70
2023-10-29T16:06:15.756Z,-70
2023-10-29T16:08:44.104Z,-70
2023-10-29T16:11:12.420Z,-70
2023-10-29T16:13:41.763Z,-70
2023-10-29T16:16:10.490Z,-70
2023-10-29T16:18:38.825Z,-71
2023-10-29T16:21:07.668Z,-70
2023-10-29T16:23:35.867Z,-70
2023-10-29T16:26:03.989Z,-70
2023-10-29T16:28:32.162Z,-70
2023-10-29T16:31:00.301Z,-70
2023-10-29T16:33:28.542Z,-70
2023-10-29T16:35:58.015Z,-70
2023-10-29T16:38:27.819Z,-69
2023-10-29T16:40:57.932Z,-70
2023-10-29T16:43:26.836Z,-72
2023-10-29T16:45:55.098Z,-70
2023-10-29T16:48:23.784Z,-70
2023-10-29T16:51:02.923Z,-70
2023-10-29T16:53:32.095Z,-71
2023-10-29T16:56:12.105Z,-71
2023-10-29T16:58:41.456Z,-70
2023-10-29T17:01:13.523Z,-76
2023-10-29T17:03:42.883Z,-76
2023-10-29T17:06:11.409Z,-76
2023-10-29T17:08:39.814Z,-76
2023-10-29T17:11:07.999Z,-77
2023-10-29T17:13:36.213Z,-76
2023-10-29T17:16:05.381Z,-75
2023-10-29T17:18:34.302Z,-76
2023-10-29T17:21:03.172Z,-75
2023-10-29T17:23:31.691Z,-74
2023-10-29T17:26:01.327Z,-75
2023-10-29T17:28:29.624Z,-75
2023-10-29T17:30:57.447Z,-75
2023-10-29T17:33:25.701Z,-74
2023-10-29T17:35:53.833Z,-75
2023-10-29T17:38:22.043Z,-75
2023-10-29T17:40:50.223Z,-75
2023-10-29T17:43:18.637Z,-74
2023-10-29T17:45:48.525Z,-75
2023-10-29T17:48:16.839Z,-75
2023-10-29T17:50:45.112Z,-74
2023-10-29T17:53:13.252Z,-75
2023-10-29T17:55:41.385Z,-74
2023-10-29T17:58:09.968Z,-74
2023-10-29T18:00:38.168Z,-74
2023-10-29T18:03:06.840Z,-74
2023-10-29T18:05:35.082Z,-74
2023-10-29T18:08:03.196Z,-74
2023-10-29T18:10:31.332Z,-74
2023-10-29T18:12:59.571Z,-74
2023-10-29T18:15:27.720Z,-74
2023-10-29T18:17:55.956Z,-74
2023-10-29T18:20:24.110Z,-74
2023-10-29T18:22:52.289Z,-74
2023-10-29T18:25:20.417Z,-74
2023-10-29T18:27:48.805Z,-75
2023-10-29T18:30:17.595Z,-75
2023-10-29T18:32:46.389Z,-74
2023-10-29T18:35:14.568Z,-74
2023-10-29T18:37:46.816Z,-74
2023-10-29T18:40:14.955Z,-74
2023-10-29T18:42:43.084Z,-73
2023-10-29T18:45:11.165Z,-74
2023-10-29T18:47:40.887Z,-74
2023-10-29T18:50:09.144Z,-74
2023-10-29T18:52:40.034Z,-74
2023-10-29T18:55:08.613Z,-74
2023-10-29T18:57:36.794Z,-74
2023-10-29T19:00:05.849Z,-73
2023-10-29T19:02:34.054Z,-72
2023-10-29T19:05:02.197Z,-76
2023-10-29T19:07:30.400Z,-73
2023-10-29T19:09:59.993Z,-73
2023-10-29T19:12:28.282Z,-73
2023-10-29T19:14:56.658Z,-73
2023-10-29T19:17:24.801Z,-73
2023-10-29T19:19:53.344Z,-73
2023-10-29T19:22:21.558Z,-73
2023-10-29T19:24:49.910Z,-73
2023-10-29T19:27:18.161Z,-74
2023-10-29T19:29:46.502Z,-73
2023-10-29T19:32:14.804Z,-73
2023-10-29T19:34:42.892Z,-74
2023-10-29T19:37:11.081Z,-74
2023-10-29T19:39:39.301Z,-74
2023-10-29T19:42:07.529Z,-75
2023-10-29T19:44:35.724Z,-78
2023-10-29T19:47:04.005Z,-76
2023-10-29T19:49:32.319Z,-76
2023-10-29T19:52:00.591Z,-75
2023-10-29T19:54:28.843Z,-75
2023-10-29T19:56:58.310Z,-75
2023-10-29T19:59:26.530Z,-76
2023-10-29T20:01:54.665Z,-76
2023-10-29T20:04:23.936Z,-76
2023-10-29T20:06:52.123Z,-75
2023-10-29T20:09:20.560Z,-76
2023-10-29T20:11:48.808Z,-75
2023-10-29T20:14:16.952Z,-75
2023-10-29T20:16:46.278Z,-75
2023-10-29T20:19:14.483Z,-75
2023-10-29T20:21:42.769Z,-76
2023-10-29T20:24:11.058Z,-75
2023-10-29T20:26:41.199Z,-75
2023-10-29T20:29:09.704Z,-75
2023-10-29T20:31:37.903Z,-75
2023-10-29T20:34:05.970Z,-75
2023-10-29T20:36:34.170Z,-75
2023-10-29T20:39:02.477Z,-74
2023-10-29T20:41:30.819Z,-76
2023-10-29T20:43:59.117Z,-77
2023-10-29T20:46:27.793Z,-76
2023-10-29T20:48:57.498Z,-77
2023-10-29T20:51:26.227Z,-78
2023-10-29T20:53:54.545Z,-77
2023-10-29T20:56:23.642Z,-76
2023-10-29T20:58:52.571Z,-76
2023-10-29T21:01:20.736Z,-74
2023-10-29T21:03:49.079Z,-76
2023-10-29T21:06:17.426Z,-77
2023-10-29T21:08:45.640Z,-77
2023-10-29T21:11:16.968Z,-77
2023-10-29T21:13:47.147Z,-77
2023-10-29T21:16:16.745Z,-77
2023-10-29T21:18:45.112Z,-78
2023-10-29T21:21:13.335Z,-76
2023-10-29T21:23:41.819Z,-76
2023-10-29T21:26:09.700Z,-76
2023-10-29T21:28:37.990Z,-76
2023-10-29T21:31:08.395Z,-76
2023-10-29T21:33:36.671Z,-76
2023-10-29T21:36:10.248Z,-77
2023-10-29T21:38:39.051Z,-75
2023-10-29T21:41:12.716Z,-75
2023-10-29T21:43:41.323Z,-75
2023-10-29T21:46:09.830Z,-76
2023-10-29T21:48:38.346Z,-77
2023-10-29T21:51:07.828Z,-77
2023-10-29T21:53:36.758Z,-76
2023-10-29T21:56:06.939Z,-74
2023-10-29T21:58:35.460Z,-76
2023-10-29T22:01:04.157Z,-74
2023-10-29T22:03:34.357Z,-77
2023-10-29T22:06:05.224Z,-77
2023-10-29T22:08:33.507Z,-76
2023-10-29T22:11:06.784Z,-75
2023-10-29T22:13:38.476Z,-77
2023-10-29T22:16:07.662Z,-77
2023-10-29T22:18:36.211Z,-77
2023-10-29T22:21:05.750Z,-72
2023-10-29T22:23:34.022Z,-72
2023-10-29T22:26:02.586Z,-72
2023-10-29T22:28:30.768Z,-72
2023-10-29T22:31:00.121Z,-73
2023-10-29T22:33:30.084Z,-72
2023-10-29T22:36:07.073Z,-72
2023-10-29T22:38:35.368Z,-73
2023-10-29T22:41:08.515Z,-73
2023-10-29T22:43:37.146Z,-71
2023-10-29T22:46:05.534Z,-72
2023-10-29T22:48:33.848Z,-72
2023-10-29T22:51:05.331Z,-72
2023-10-29T22:53:33.612Z,-72
2023-10-29T22:56:01.949Z,-70
2023-10-29T22:58:30.129Z,-70
2023-10-29T23:00:58.804Z,-70
2023-10-29T23:03:29.879Z,-74
2023-10-29T23:05:58.370Z,-74
2023-10-29T23:08:26.551Z,-73
2023-10-29T23:10:56.873Z,-74
2023-10-29T23:13:26.294Z,-74
2023-10-29T23:15:56.310Z,-74
2023-10-29T23:18:25.658Z,-73
2023-10-29T23:20:54.306Z,-74
2023-10-29T23:23:23.515Z,-74
2023-10-29T23:25:52.067Z,-73
2023-10-29T23:28:30.940Z,-73
2023-10-29T23:31:05.210Z,-74
2023-10-29T23:33:33.914Z,-74
2023-10-29T23:36:02.109Z,-74
2023-10-29T23:38:30.225Z,-73
2023-10-29T23:40:59.379Z,-73
2023-10-29T23:43:29.969Z,-73
2023-10-29T23:45:58.334Z,-72
2023-10-29T23:48:27.036Z,-71
2023-10-29T23:50:55.265Z,-72
2023-10-29T23:53:23.421Z,-70
2023-10-29T23:55:51.540Z,-72
2023-10-29T23:58:20.340Z,-71
